Hermitage, Pennsylvania
Current Conditions -  °F | °C
As of 5:51 AM on Thursday 23 Oct 2014 (Local Time) from KYNG Reporting Station
Few Clouds Few Clouds  
Wind Chill: 36°   Ceiling: Unl
Heat Index: 40°   Visibility: 7mi
Dew Point: 39°   Wind: 6mph
Humidity: 97%   Direction: 330°NNW
Pressure: 30.15"   Gusts: NA
Location:  41.23°N, 80.45°W
Report Text: KYNG 230951Z 33005KT 7SM FEW019 04/04 A3015 RMK AO2 SLP218 T00440039
Loading
Personal Weather Stations






























Interactive Weather Map
Tropical Storm Tracking
New forecast layout! Learn more

10-Day Weather Forecast

Advertisements
Track Severe Weather on mobile